sensor_id;sensor_type;location;lat;lon;timestamp;temperature;humidity
19928;DHT22;10126;50.876;4.470;2022-09-11T00:00:52;17.30;99.90
19928;DHT22;10126;50.876;4.470;2022-09-11T00:02:52;17.30;99.90
19928;DHT22;10126;50.876;4.470;2022-09-11T00:04:53;17.30;99.90
19928;DHT22;10126;50.876;4.470;2022-09-11T00:06:54;17.30;99.90
19928;DHT22;10126;50.876;4.470;2022-09-11T00:09:00;17.40;99.90
19928;DHT22;10126;50.876;4.470;2022-09-11T00:11:09;17.60;99.90
19928;DHT22;10126;50.876;4.470;2022-09-11T00:13:15;17.60;99.90
19928;DHT22;10126;50.876;4.470;2022-09-11T00:15:16;17.60;99.90
19928;DHT22;10126;50.876;4.470;2022-09-11T00:17:16;17.60;99.90
19928;DHT22;10126;50.876;4.470;2022-09-11T00:19:18;17.70;99.90
19928;DHT22;10126;50.876;4.470;2022-09-11T00:21:19;17.80;99.90
19928;DHT22;10126;50.876;4.470;2022-09-11T00:23:22;17.80;99.90
19928;DHT22;10126;50.876;4.470;2022-09-11T00:25:22;17.70;99.90
19928;DHT22;10126;50.876;4.470;2022-09-11T00:27:23;17.80;99.90
19928;DHT22;10126;50.876;4.470;2022-09-11T00:29:24;17.70;99.90
19928;DHT22;10126;50.876;4.470;2022-09-11T00:31:26;17.70;99.90
19928;DHT22;10126;50.876;4.470;2022-09-11T00:33:28;17.80;99.90
19928;DHT22;10126;50.876;4.470;2022-09-11T00:35:29;17.80;99.90
19928;DHT22;10126;50.876;4.470;2022-09-11T00:37:30;17.80;99.90
19928;DHT22;10126;50.876;4.470;2022-09-11T00:39:30;17.80;99.90
19928;DHT22;10126;50.876;4.470;2022-09-11T00:41:35;17.70;99.90
19928;DHT22;10126;50.876;4.470;2022-09-11T00:44:00;17.60;99.90
19928;DHT22;10126;50.876;4.470;2022-09-11T00:46:03;17.60;99.90
19928;DHT22;10126;50.876;4.470;2022-09-11T00:48:06;17.50;99.90
19928;DHT22;10126;50.876;4.470;2022-09-11T00:50:15;17.50;99.90
19928;DHT22;10126;50.876;4.470;2022-09-11T00:52:24;17.40;99.90
19928;DHT22;10126;50.876;4.470;2022-09-11T00:54:30;17.40;99.90
19928;DHT22;10126;50.876;4.470;2022-09-11T00:56:34;17.20;99.90
19928;DHT22;10126;50.876;4.470;2022-09-11T00:58:38;17.10;99.90
19928;DHT22;10126;50.876;4.470;2022-09-11T01:00:42;17.10;99.90
19928;DHT22;10126;50.876;4.470;2022-09-11T01:02:46;17.10;99.90
19928;DHT22;10126;50.876;4.470;2022-09-11T01:04:48;17.10;99.90
19928;DHT22;10126;50.876;4.470;2022-09-11T01:06:55;17.10;99.90
19928;DHT22;10126;50.876;4.470;2022-09-11T01:08:56;17.00;99.90
19928;DHT22;10126;50.876;4.470;2022-09-11T01:13:35;16.80;99.90
19928;DHT22;10126;50.876;4.470;2022-09-11T01:30:13;16.60;99.90
19928;DHT22;10126;50.876;4.470;2022-09-11T01:35:22;16.70;99.90
19928;DHT22;10126;50.876;4.470;2022-09-11T01:40:52;16.60;99.90
19928;DHT22;10126;50.876;4.470;2022-09-11T01:42:58;16.40;99.90
19928;DHT22;10126;50.876;4.470;2022-09-11T01:45:03;16.50;99.90
19928;DHT22;10126;50.876;4.470;2022-09-11T01:47:07;16.40;99.90
19928;DHT22;10126;50.876;4.470;2022-09-11T01:49:17;16.30;99.90
19928;DHT22;10126;50.876;4.470;2022-09-11T01:51:22;16.30;99.90
19928;DHT22;10126;50.876;4.470;2022-09-11T01:53:31;16.30;99.90
19928;DHT22;10126;50.876;4.470;2022-09-11T01:55:39;16.30;99.90
19928;DHT22;10126;50.876;4.470;2022-09-11T01:57:53;16.30;99.90
19928;DHT22;10126;50.876;4.470;2022-09-11T02:00:01;16.20;99.90
19928;DHT22;10126;50.876;4.470;2022-09-11T02:02:07;16.10;99.90
19928;DHT22;10126;50.876;4.470;2022-09-11T02:04:17;16.00;99.90
19928;DHT22;10126;50.876;4.470;2022-09-11T02:06:27;15.90;99.90
19928;DHT22;10126;50.876;4.470;2022-09-11T02:10:51;15.90;99.90
19928;DHT22;10126;50.876;4.470;2022-09-11T02:13:06;16.10;99.90
19928;DHT22;10126;50.876;4.470;2022-09-11T02:15:13;16.20;99.90
19928;DHT22;10126;50.876;4.470;2022-09-11T02:19:48;16.10;99.90
19928;DHT22;10126;50.876;4.470;2022-09-11T02:21:49;16.10;99.90
19928;DHT22;10126;50.876;4.470;2022-09-11T02:23:53;16.20;99.90
19928;DHT22;10126;50.876;4.470;2022-09-11T02:25:54;16.10;99.90
19928;DHT22;10126;50.876;4.470;2022-09-11T02:27:55;16.20;99.90
19928;DHT22;10126;50.876;4.470;2022-09-11T02:29:57;16.10;99.90
19928;DHT22;10126;50.876;4.470;2022-09-11T02:31:57;16.10;99.90
19928;DHT22;10126;50.876;4.470;2022-09-11T02:34:00;16.00;99.90
19928;DHT22;10126;50.876;4.470;2022-09-11T02:36:12;16.00;99.90
19928;DHT22;10126;50.876;4.470;2022-09-11T02:38:22;15.90;99.90
19928;DHT22;10126;50.876;4.470;2022-09-11T02:40:50;15.90;99.90
19928;DHT22;10126;50.876;4.470;2022-09-11T02:43:05;15.80;99.90
19928;DHT22;10126;50.876;4.470;2022-09-11T02:50:28;15.70;99.90
19928;DHT22;10126;50.876;4.470;2022-09-11T02:59:57;15.80;99.90
19928;DHT22;10126;50.876;4.470;2022-09-11T03:02:00;15.80;99.90
19928;DHT22;10126;50.876;4.470;2022-09-11T03:04:01;15.80;99.90
19928;DHT22;10126;50.876;4.470;2022-09-11T03:06:02;15.80;99.90
19928;DHT22;10126;50.876;4.470;2022-09-11T03:08:02;15.80;99.90
19928;DHT22;10126;50.876;4.470;2022-09-11T03:10:04;15.80;99.90
19928;DHT22;10126;50.876;4.470;2022-09-11T03:12:05;15.70;99.90
19928;DHT22;10126;50.876;4.470;2022-09-11T03:14:05;15.60;99.90
19928;DHT22;10126;50.876;4.470;2022-09-11T03:16:06;15.50;99.90
19928;DHT22;10126;50.876;4.470;2022-09-11T03:18:07;15.60;99.90
19928;DHT22;10126;50.876;4.470;2022-09-11T03:20:08;15.60;99.90
19928;DHT22;10126;50.876;4.470;2022-09-11T03:22:08;15.70;99.90
19928;DHT22;10126;50.876;4.470;2022-09-11T03:24:09;15.60;99.90
19928;DHT22;10126;50.876;4.470;2022-09-11T03:26:10;15.50;99.90
19928;DHT22;10126;50.876;4.470;2022-09-11T03:28:11;15.40;99.90
19928;DHT22;10126;50.876;4.470;2022-09-11T03:30:11;15.50;99.90
19928;DHT22;10126;50.876;4.470;2022-09-11T03:32:12;15.60;99.90
19928;DHT22;10126;50.876;4.470;2022-09-11T03:34:13;15.70;99.90
19928;DHT22;10126;50.876;4.470;2022-09-11T03:36:14;15.70;99.90
19928;DHT22;10126;50.876;4.470;2022-09-11T03:38:15;15.70;99.90
19928;DHT22;10126;50.876;4.470;2022-09-11T03:40:16;15.70;99.90
19928;DHT22;10126;50.876;4.470;2022-09-11T03:42:16;15.70;99.90
19928;DHT22;10126;50.876;4.470;2022-09-11T03:44:17;15.80;99.90
19928;DHT22;10126;50.876;4.470;2022-09-11T03:46:18;15.80;99.90
19928;DHT22;10126;50.876;4.470;2022-09-11T03:48:18;15.90;99.90
19928;DHT22;10126;50.876;4.470;2022-09-11T03:50:19;15.90;99.90
19928;DHT22;10126;50.876;4.470;2022-09-11T03:52:20;15.80;99.90
19928;DHT22;10126;50.876;4.470;2022-09-11T03:54:22;15.80;99.90
19928;DHT22;10126;50.876;4.470;2022-09-11T03:56:22;15.80;99.90
19928;DHT22;10126;50.876;4.470;2022-09-11T03:58:23;15.90;99.90
19928;DHT22;10126;50.876;4.470;2022-09-11T04:00:25;15.90;99.90
19928;DHT22;10126;50.876;4.470;2022-09-11T04:02:25;15.70;99.90
19928;DHT22;10126;50.876;4.470;2022-09-11T04:04:26;15.60;99.90
19928;DHT22;10126;50.876;4.470;2022-09-11T04:06:27;15.60;99.90
19928;DHT22;10126;50.876;4.470;2022-09-11T04:08:27;15.60;99.90
19928;DHT22;10126;50.876;4.470;2022-09-11T04:10:33;15.60;99.90
19928;DHT22;10126;50.876;4.470;2022-09-11T04:12:34;15.60;99.90
19928;DHT22;10126;50.876;4.470;2022-09-11T04:14:34;15.60;99.90
19928;DHT22;10126;50.876;4.470;2022-09-11T04:16:35;15.70;99.90
19928;DHT22;10126;50.876;4.470;2022-09-11T04:18:37;15.60;99.90
19928;DHT22;10126;50.876;4.470;2022-09-11T04:20:38;15.60;99.90
19928;DHT22;10126;50.876;4.470;2022-09-11T04:22:39;15.60;99.90
19928;DHT22;10126;50.876;4.470;2022-09-11T04:24:40;15.60;99.90
19928;DHT22;10126;50.876;4.470;2022-09-11T04:26:41;15.50;99.90
19928;DHT22;10126;50.876;4.470;2022-09-11T04:28:42;15.40;99.90
19928;DHT22;10126;50.876;4.470;2022-09-11T04:30:42;15.40;99.90
19928;DHT22;10126;50.876;4.470;2022-09-11T04:32:43;15.50;99.90
19928;DHT22;10126;50.876;4.470;2022-09-11T04:34:45;15.40;99.90
19928;DHT22;10126;50.876;4.470;2022-09-11T04:36:46;15.40;99.90
19928;DHT22;10126;50.876;4.470;2022-09-11T04:38:47;15.40;99.90
19928;DHT22;10126;50.876;4.470;2022-09-11T04:40:48;15.40;99.90
19928;DHT22;10126;50.876;4.470;2022-09-11T04:42:49;15.40;99.90
19928;DHT22;10126;50.876;4.470;2022-09-11T04:44:49;15.50;99.90
19928;DHT22;10126;50.876;4.470;2022-09-11T04:46:50;15.50;99.90
19928;DHT22;10126;50.876;4.470;2022-09-11T04:48:53;15.50;99.90
19928;DHT22;10126;50.876;4.470;2022-09-11T04:51:04;15.50;99.90
19928;DHT22;10126;50.876;4.470;2022-09-11T04:53:04;15.60;99.90
19928;DHT22;10126;50.876;4.470;2022-09-11T04:55:06;15.50;99.90
19928;DHT22;10126;50.876;4.470;2022-09-11T04:57:07;15.60;99.90
19928;DHT22;10126;50.876;4.470;2022-09-11T04:59:14;15.60;99.90
19928;DHT22;10126;50.876;4.470;2022-09-11T05:01:18;15.60;99.90
19928;DHT22;10126;50.876;4.470;2022-09-11T05:03:19;15.80;99.90
19928;DHT22;10126;50.876;4.470;2022-09-11T05:05:20;15.90;99.90
19928;DHT22;10126;50.876;4.470;2022-09-11T05:07:21;16.00;99.90
19928;DHT22;10126;50.876;4.470;2022-09-11T05:09:21;16.10;99.90
19928;DHT22;10126;50.876;4.470;2022-09-11T05:11:22;16.10;99.90
19928;DHT22;10126;50.876;4.470;2022-09-11T05:13:26;16.20;99.90
19928;DHT22;10126;50.876;4.470;2022-09-11T05:15:27;16.20;99.90
19928;DHT22;10126;50.876;4.470;2022-09-11T05:17:29;16.20;99.90
19928;DHT22;10126;50.876;4.470;2022-09-11T05:19:29;16.10;99.90
19928;DHT22;10126;50.876;4.470;2022-09-11T05:21:31;16.20;99.90
19928;DHT22;10126;50.876;4.470;2022-09-11T05:23:32;16.10;99.90
19928;DHT22;10126;50.876;4.470;2022-09-11T05:25:34;16.30;99.90
19928;DHT22;10126;50.876;4.470;2022-09-11T05:27:36;16.30;99.90
19928;DHT22;10126;50.876;4.470;2022-09-11T05:29:36;16.30;99.90
19928;DHT22;10126;50.876;4.470;2022-09-11T05:31:38;16.40;99.90
19928;DHT22;10126;50.876;4.470;2022-09-11T05:33:40;16.30;99.90
19928;DHT22;10126;50.876;4.470;2022-09-11T05:35:41;16.30;99.90
19928;DHT22;10126;50.876;4.470;2022-09-11T05:37:41;16.30;99.90
19928;DHT22;10126;50.876;4.470;2022-09-11T05:39:42;16.50;99.90
19928;DHT22;10126;50.876;4.470;2022-09-11T05:41:42;16.40;99.90
19928;DHT22;10126;50.876;4.470;2022-09-11T05:43:43;16.50;99.90
19928;DHT22;10126;50.876;4.470;2022-09-11T05:45:44;16.60;99.90
19928;DHT22;10126;50.876;4.470;2022-09-11T05:47:45;16.70;99.90
19928;DHT22;10126;50.876;4.470;2022-09-11T05:49:46;16.70;99.90
19928;DHT22;10126;50.876;4.470;2022-09-11T05:51:47;16.80;99.90
19928;DHT22;10126;50.876;4.470;2022-09-11T05:53:51;16.70;99.90
19928;DHT22;10126;50.876;4.470;2022-09-11T05:55:53;16.70;99.90
19928;DHT22;10126;50.876;4.470;2022-09-11T05:57:54;16.60;99.90
19928;DHT22;10126;50.876;4.470;2022-09-11T05:59:54;16.50;99.90
19928;DHT22;10126;50.876;4.470;2022-09-11T06:01:55;16.60;99.90
19928;DHT22;10126;50.876;4.470;2022-09-11T06:03:56;16.70;99.90
19928;DHT22;10126;50.876;4.470;2022-09-11T06:06:01;16.90;99.90
19928;DHT22;10126;50.876;4.470;2022-09-11T06:08:02;16.90;99.90
19928;DHT22;10126;50.876;4.470;2022-09-11T06:10:04;17.00;99.90
19928;DHT22;10126;50.876;4.470;2022-09-11T06:12:05;17.10;99.90
19928;DHT22;10126;50.876;4.470;2022-09-11T06:14:05;17.10;99.90
19928;DHT22;10126;50.876;4.470;2022-09-11T06:16:08;17.20;99.90
19928;DHT22;10126;50.876;4.470;2022-09-11T06:18:09;17.20;99.90
19928;DHT22;10126;50.876;4.470;2022-09-11T06:20:10;17.30;99.90
19928;DHT22;10126;50.876;4.470;2022-09-11T06:22:11;17.30;99.90
19928;DHT22;10126;50.876;4.470;2022-09-11T06:24:12;17.30;99.90
19928;DHT22;10126;50.876;4.470;2022-09-11T06:26:15;17.30;99.90
19928;DHT22;10126;50.876;4.470;2022-09-11T06:28:16;17.20;99.90
19928;DHT22;10126;50.876;4.470;2022-09-11T06:30:17;17.40;99.90
19928;DHT22;10126;50.876;4.470;2022-09-11T06:32:17;17.50;99.90
19928;DHT22;10126;50.876;4.470;2022-09-11T06:34:20;17.60;99.90
19928;DHT22;10126;50.876;4.470;2022-09-11T06:36:23;17.60;99.90
19928;DHT22;10126;50.876;4.470;2022-09-11T06:38:26;17.60;99.90
19928;DHT22;10126;50.876;4.470;2022-09-11T06:40:27;17.70;99.90
19928;DHT22;10126;50.876;4.470;2022-09-11T06:42:28;17.80;99.90
19928;DHT22;10126;50.876;4.470;2022-09-11T06:44:29;18.00;99.90
19928;DHT22;10126;50.876;4.470;2022-09-11T06:46:30;18.00;99.90
19928;DHT22;10126;50.876;4.470;2022-09-11T06:48:30;17.90;99.90
19928;DHT22;10126;50.876;4.470;2022-09-11T06:50:34;18.20;99.90
19928;DHT22;10126;50.876;4.470;2022-09-11T06:52:40;18.30;99.90
19928;DHT22;10126;50.876;4.470;2022-09-11T06:54:42;18.30;99.90
19928;DHT22;10126;50.876;4.470;2022-09-11T06:56:43;18.40;99.90
19928;DHT22;10126;50.876;4.470;2022-09-11T06:58:45;18.60;99.90
19928;DHT22;10126;50.876;4.470;2022-09-11T07:00:45;18.50;99.90
19928;DHT22;10126;50.876;4.470;2022-09-11T07:02:46;18.40;99.90
19928;DHT22;10126;50.876;4.470;2022-09-11T07:04:47;18.30;99.90
19928;DHT22;10126;50.876;4.470;2022-09-11T07:06:48;18.20;99.90
19928;DHT22;10126;50.876;4.470;2022-09-11T07:08:54;18.30;99.90
19928;DHT22;10126;50.876;4.470;2022-09-11T07:11:03;18.40;99.90
19928;DHT22;10126;50.876;4.470;2022-09-11T07:13:05;18.60;99.90
19928;DHT22;10126;50.876;4.470;2022-09-11T07:15:06;18.70;99.90
19928;DHT22;10126;50.876;4.470;2022-09-11T07:17:07;18.90;99.90
19928;DHT22;10126;50.876;4.470;2022-09-11T07:19:07;18.80;99.90
19928;DHT22;10126;50.876;4.470;2022-09-11T07:21:18;18.80;99.90
19928;DHT22;10126;50.876;4.470;2022-09-11T07:23:20;18.80;99.90
19928;DHT22;10126;50.876;4.470;2022-09-11T07:25:21;19.00;99.90
19928;DHT22;10126;50.876;4.470;2022-09-11T07:27:21;19.20;99.90
19928;DHT22;10126;50.876;4.470;2022-09-11T07:29:22;19.50;99.90
19928;DHT22;10126;50.876;4.470;2022-09-11T07:31:25;19.70;99.90
19928;DHT22;10126;50.876;4.470;2022-09-11T07:33:28;19.70;99.90
19928;DHT22;10126;50.876;4.470;2022-09-11T07:35:29;20.00;99.90
19928;DHT22;10126;50.876;4.470;2022-09-11T07:37:30;19.90;99.90
19928;DHT22;10126;50.876;4.470;2022-09-11T07:39:31;20.00;99.90
19928;DHT22;10126;50.876;4.470;2022-09-11T07:41:31;20.20;99.90
19928;DHT22;10126;50.876;4.470;2022-09-11T07:43:32;20.00;99.90
19928;DHT22;10126;50.876;4.470;2022-09-11T07:45:34;20.10;99.90
19928;DHT22;10126;50.876;4.470;2022-09-11T07:47:34;20.20;99.90
19928;DHT22;10126;50.876;4.470;2022-09-11T07:49:35;20.30;99.90
19928;DHT22;10126;50.876;4.470;2022-09-11T07:51:36;20.20;99.90
19928;DHT22;10126;50.876;4.470;2022-09-11T07:53:46;20.30;99.90
19928;DHT22;10126;50.876;4.470;2022-09-11T07:55:46;20.30;99.90
19928;DHT22;10126;50.876;4.470;2022-09-11T07:57:47;20.40;99.90
19928;DHT22;10126;50.876;4.470;2022-09-11T07:59:49;20.60;99.90
19928;DHT22;10126;50.876;4.470;2022-09-11T08:01:51;20.70;99.90
19928;DHT22;10126;50.876;4.470;2022-09-11T08:04:00;21.00;99.90
19928;DHT22;10126;50.876;4.470;2022-09-11T08:06:04;21.40;99.90
19928;DHT22;10126;50.876;4.470;2022-09-11T08:08:05;21.40;99.90
19928;DHT22;10126;50.876;4.470;2022-09-11T08:10:06;21.40;99.90
19928;DHT22;10126;50.876;4.470;2022-09-11T08:12:08;21.30;99.90
19928;DHT22;10126;50.876;4.470;2022-09-11T08:14:10;21.10;99.90
19928;DHT22;10126;50.876;4.470;2022-09-11T08:16:13;21.20;99.90
19928;DHT22;10126;50.876;4.470;2022-09-11T08:18:13;21.50;99.90
19928;DHT22;10126;50.876;4.470;2022-09-11T08:20:14;21.70;99.90
19928;DHT22;10126;50.876;4.470;2022-09-11T08:22:15;21.70;99.90
19928;DHT22;10126;50.876;4.470;2022-09-11T08:24:16;21.50;99.90
19928;DHT22;10126;50.876;4.470;2022-09-11T08:26:20;21.00;99.90
19928;DHT22;10126;50.876;4.470;2022-09-11T08:28:21;20.90;99.90
19928;DHT22;10126;50.876;4.470;2022-09-11T08:30:22;21.30;99.90
19928;DHT22;10126;50.876;4.470;2022-09-11T08:32:22;21.50;99.90
19928;DHT22;10126;50.876;4.470;2022-09-11T08:34:24;21.70;99.90
19928;DHT22;10126;50.876;4.470;2022-09-11T08:36:25;22.00;99.90
19928;DHT22;10126;50.876;4.470;2022-09-11T08:38:26;22.20;99.90
19928;DHT22;10126;50.876;4.470;2022-09-11T08:40:29;22.70;99.90
19928;DHT22;10126;50.876;4.470;2022-09-11T08:42:29;22.80;99.90
19928;DHT22;10126;50.876;4.470;2022-09-11T08:44:42;22.90;99.90
19928;DHT22;10126;50.876;4.470;2022-09-11T08:46:56;23.00;99.90
19928;DHT22;10126;50.876;4.470;2022-09-11T08:49:02;22.80;99.90
19928;DHT22;10126;50.876;4.470;2022-09-11T08:51:03;22.70;99.90
19928;DHT22;10126;50.876;4.470;2022-09-11T08:53:05;22.80;99.90
19928;DHT22;10126;50.876;4.470;2022-09-11T08:55:12;22.80;99.90
19928;DHT22;10126;50.876;4.470;2022-09-11T09:00:35;23.20;99.90
19928;DHT22;10126;50.876;4.470;2022-09-11T09:02:48;23.00;99.90
19928;DHT22;10126;50.876;4.470;2022-09-11T09:09:38;24.40;99.90
19928;DHT22;10126;50.876;4.470;2022-09-11T09:14:08;25.90;99.90
19928;DHT22;10126;50.876;4.470;2022-09-11T09:19:04;27.00;99.90
19928;DHT22;10126;50.876;4.470;2022-09-11T09:23:34;28.20;99.90
19928;DHT22;10126;50.876;4.470;2022-09-11T09:25:39;28.20;99.90
19928;DHT22;10126;50.876;4.470;2022-09-11T09:27:45;29.40;99.90
19928;DHT22;10126;50.876;4.470;2022-09-11T09:29:48;29.90;99.90
19928;DHT22;10126;50.876;4.470;2022-09-11T09:32:00;30.00;99.90
19928;DHT22;10126;50.876;4.470;2022-09-11T09:34:06;29.90;99.90
19928;DHT22;10126;50.876;4.470;2022-09-11T09:36:33;29.20;99.90
19928;DHT22;10126;50.876;4.470;2022-09-11T09:38:37;28.10;99.90
19928;DHT22;10126;50.876;4.470;2022-09-11T09:40:46;27.20;99.90
19928;DHT22;10126;50.876;4.470;2022-09-11T09:45:43;26.50;99.90
19928;DHT22;10126;50.876;4.470;2022-09-11T09:47:48;27.10;99.90
19928;DHT22;10126;50.876;4.470;2022-09-11T09:49:49;27.10;99.90
19928;DHT22;10126;50.876;4.470;2022-09-11T09:51:56;27.30;99.90
19928;DHT22;10126;50.876;4.470;2022-09-11T09:54:03;27.60;99.90
19928;DHT22;10126;50.876;4.470;2022-09-11T09:56:04;27.90;99.90
19928;DHT22;10126;50.876;4.470;2022-09-11T09:58:05;27.80;99.90
19928;DHT22;10126;50.876;4.470;2022-09-11T10:02:11;27.60;99.90
19928;DHT22;10126;50.876;4.470;2022-09-11T10:04:21;27.30;99.90
19928;DHT22;10126;50.876;4.470;2022-09-11T10:06:22;27.00;99.90
19928;DHT22;10126;50.876;4.470;2022-09-11T10:12:32;25.30;99.90
19928;DHT22;10126;50.876;4.470;2022-09-11T10:14:43;24.90;99.90
19928;DHT22;10126;50.876;4.470;2022-09-11T10:16:50;23.80;99.90
19928;DHT22;10126;50.876;4.470;2022-09-11T10:18:54;23.80;99.90
19928;DHT22;10126;50.876;4.470;2022-09-11T10:23:24;24.80;99.90
19928;DHT22;10126;50.876;4.470;2022-09-11T10:25:26;25.20;99.90
19928;DHT22;10126;50.876;4.470;2022-09-11T10:27:33;25.10;99.90
19928;DHT22;10126;50.876;4.470;2022-09-11T10:29:35;25.20;99.90
19928;DHT22;10126;50.876;4.470;2022-09-11T10:31:38;24.90;99.90
19928;DHT22;10126;50.876;4.470;2022-09-11T10:33:50;24.70;99.90
19928;DHT22;10126;50.876;4.470;2022-09-11T10:35:53;24.40;99.90
19928;DHT22;10126;50.876;4.470;2022-09-11T10:38:16;24.60;99.90
19928;DHT22;10126;50.876;4.470;2022-09-11T10:40:21;24.60;99.90
19928;DHT22;10126;50.876;4.470;2022-09-11T10:42:26;24.40;99.90
19928;DHT22;10126;50.876;4.470;2022-09-11T10:44:28;24.20;99.90
19928;DHT22;10126;50.876;4.470;2022-09-11T10:46:33;24.10;99.90
19928;DHT22;10126;50.876;4.470;2022-09-11T10:48:34;24.10;99.90
19928;DHT22;10126;50.876;4.470;2022-09-11T10:50:36;23.80;99.90
19928;DHT22;10126;50.876;4.470;2022-09-11T10:55:06;23.40;99.90
19928;DHT22;10126;50.876;4.470;2022-09-11T10:59:22;23.30;99.90
19928;DHT22;10126;50.876;4.470;2022-09-11T11:01:23;23.20;99.90
19928;DHT22;10126;50.876;4.470;2022-09-11T11:03:28;23.20;99.90
19928;DHT22;10126;50.876;4.470;2022-09-11T11:15:54;23.60;99.90
19928;DHT22;10126;50.876;4.470;2022-09-11T11:20:38;23.80;99.90
19928;DHT22;10126;50.876;4.470;2022-09-11T11:32:14;24.20;99.90
19928;DHT22;10126;50.876;4.470;2022-09-11T11:36:48;24.40;99.90
19928;DHT22;10126;50.876;4.470;2022-09-11T11:39:15;24.40;99.90
19928;DHT22;10126;50.876;4.470;2022-09-11T11:41:24;24.50;99.90
19928;DHT22;10126;50.876;4.470;2022-09-11T11:43:30;24.80;99.90
19928;DHT22;10126;50.876;4.470;2022-09-11T11:45:38;24.80;99.90
19928;DHT22;10126;50.876;4.470;2022-09-11T11:47:42;24.60;99.90
19928;DHT22;10126;50.876;4.470;2022-09-11T11:50:04;24.90;99.90
19928;DHT22;10126;50.876;4.470;2022-09-11T11:57:22;25.40;99.90
19928;DHT22;10126;50.876;4.470;2022-09-11T11:59:54;25.60;99.90
19928;DHT22;10126;50.876;4.470;2022-09-11T12:06:42;25.40;99.90
19928;DHT22;10126;50.876;4.470;2022-09-11T12:08:46;25.30;99.90
19928;DHT22;10126;50.876;4.470;2022-09-11T12:10:56;25.40;99.90
19928;DHT22;10126;50.876;4.470;2022-09-11T12:13:06;25.30;99.90
19928;DHT22;10126;50.876;4.470;2022-09-11T12:15:16;25.30;99.90
19928;DHT22;10126;50.876;4.470;2022-09-11T12:17:35;25.20;99.90
19928;DHT22;10126;50.876;4.470;2022-09-11T12:19:36;24.60;99.90
19928;DHT22;10126;50.876;4.470;2022-09-11T12:21:39;23.60;99.90
19928;DHT22;10126;50.876;4.470;2022-09-11T12:26:14;23.80;99.90
19928;DHT22;10126;50.876;4.470;2022-09-11T12:28:25;24.00;99.90
19928;DHT22;10126;50.876;4.470;2022-09-11T12:30:27;24.00;99.90
19928;DHT22;10126;50.876;4.470;2022-09-11T12:32:40;24.00;99.90
19928;DHT22;10126;50.876;4.470;2022-09-11T12:36:57;24.00;99.90
19928;DHT22;10126;50.876;4.470;2022-09-11T12:39:14;23.90;99.90
19928;DHT22;10126;50.876;4.470;2022-09-11T12:41:34;23.60;99.90
19928;DHT22;10126;50.876;4.470;2022-09-11T12:45:36;23.20;99.90
19928;DHT22;10126;50.876;4.470;2022-09-11T12:47:40;22.60;99.90
19928;DHT22;10126;50.876;4.470;2022-09-11T12:49:54;22.30;99.90
19928;DHT22;10126;50.876;4.470;2022-09-11T12:51:59;21.80;99.90
19928;DHT22;10126;50.876;4.470;2022-09-11T12:54:03;22.00;99.90
19928;DHT22;10126;50.876;4.470;2022-09-11T12:56:17;22.40;99.90
19928;DHT22;10126;50.876;4.470;2022-09-11T13:00:34;22.90;99.90
19928;DHT22;10126;50.876;4.470;2022-09-11T13:02:41;22.80;99.90
19928;DHT22;10126;50.876;4.470;2022-09-11T13:04:44;22.80;99.90
19928;DHT22;10126;50.876;4.470;2022-09-11T13:07:06;23.20;99.90
19928;DHT22;10126;50.876;4.470;2022-09-11T13:11:45;23.50;99.90
19928;DHT22;10126;50.876;4.470;2022-09-11T13:13:47;23.70;99.90
19928;DHT22;10126;50.876;4.470;2022-09-11T13:15:48;23.80;99.90
19928;DHT22;10126;50.876;4.470;2022-09-11T13:17:51;23.70;99.90
19928;DHT22;10126;50.876;4.470;2022-09-11T13:22:27;23.70;99.90
19928;DHT22;10126;50.876;4.470;2022-09-11T13:24:32;23.90;99.90
19928;DHT22;10126;50.876;4.470;2022-09-11T13:26:32;24.10;99.90
19928;DHT22;10126;50.876;4.470;2022-09-11T13:29:00;23.90;99.90
19928;DHT22;10126;50.876;4.470;2022-09-11T13:31:01;23.80;99.90
19928;DHT22;10126;50.876;4.470;2022-09-11T13:33:06;23.70;99.90
19928;DHT22;10126;50.876;4.470;2022-09-11T13:35:16;23.70;99.90
19928;DHT22;10126;50.876;4.470;2022-09-11T13:37:46;23.70;99.90
19928;DHT22;10126;50.876;4.470;2022-09-11T13:39:49;23.70;99.90
19928;DHT22;10126;50.876;4.470;2022-09-11T13:42:00;23.70;99.90
19928;DHT22;10126;50.876;4.470;2022-09-11T13:44:10;23.70;99.90
19928;DHT22;10126;50.876;4.470;2022-09-11T13:48:22;23.40;99.90
19928;DHT22;10126;50.876;4.470;2022-09-11T13:50:23;23.10;99.90
19928;DHT22;10126;50.876;4.470;2022-09-11T13:52:25;22.90;99.90
19928;DHT22;10126;50.876;4.470;2022-09-11T13:54:29;23.00;99.90
19928;DHT22;10126;50.876;4.470;2022-09-11T13:56:45;23.20;99.90
19928;DHT22;10126;50.876;4.470;2022-09-11T14:01:55;23.80;99.90
19928;DHT22;10126;50.876;4.470;2022-09-11T14:04:00;24.10;99.90
19928;DHT22;10126;50.876;4.470;2022-09-11T14:06:02;24.20;99.90
19928;DHT22;10126;50.876;4.470;2022-09-11T14:08:21;24.10;99.90
19928;DHT22;10126;50.876;4.470;2022-09-11T14:10:32;24.00;99.90
19928;DHT22;10126;50.876;4.470;2022-09-11T14:12:46;24.00;99.90
19928;DHT22;10126;50.876;4.470;2022-09-11T14:14:53;24.00;99.90
19928;DHT22;10126;50.876;4.470;2022-09-11T14:16:57;23.90;99.90
19928;DHT22;10126;50.876;4.470;2022-09-11T14:19:11;23.90;99.90
19928;DHT22;10126;50.876;4.470;2022-09-11T14:21:20;23.90;99.90
19928;DHT22;10126;50.876;4.470;2022-09-11T14:23:27;24.20;99.90
19928;DHT22;10126;50.876;4.470;2022-09-11T14:25:28;24.30;99.90
19928;DHT22;10126;50.876;4.470;2022-09-11T14:29:31;24.40;99.90
19928;DHT22;10126;50.876;4.470;2022-09-11T14:31:36;24.50;99.90
19928;DHT22;10126;50.876;4.470;2022-09-11T14:33:37;24.50;99.90
19928;DHT22;10126;50.876;4.470;2022-09-11T14:35:38;24.50;99.90
19928;DHT22;10126;50.876;4.470;2022-09-11T14:37:42;24.60;99.90
19928;DHT22;10126;50.876;4.470;2022-09-11T14:39:47;23.90;99.90
19928;DHT22;10126;50.876;4.470;2022-09-11T14:41:50;23.80;99.90
19928;DHT22;10126;50.876;4.470;2022-09-11T14:43:51;24.10;99.90
19928;DHT22;10126;50.876;4.470;2022-09-11T14:45:51;24.30;99.90
19928;DHT22;10126;50.876;4.470;2022-09-11T14:47:53;24.50;99.90
19928;DHT22;10126;50.876;4.470;2022-09-11T14:49:55;24.30;99.90
19928;DHT22;10126;50.876;4.470;2022-09-11T14:51:58;24.20;99.90
19928;DHT22;10126;50.876;4.470;2022-09-11T14:53:59;24.20;99.90
19928;DHT22;10126;50.876;4.470;2022-09-11T14:56:01;24.40;99.90
19928;DHT22;10126;50.876;4.470;2022-09-11T14:58:02;24.40;99.90
19928;DHT22;10126;50.876;4.470;2022-09-11T15:00:03;24.50;99.90
19928;DHT22;10126;50.876;4.470;2022-09-11T15:02:05;24.50;99.90
19928;DHT22;10126;50.876;4.470;2022-09-11T15:04:16;24.60;99.90
19928;DHT22;10126;50.876;4.470;2022-09-11T15:06:19;24.80;99.90
19928;DHT22;10126;50.876;4.470;2022-09-11T15:08:19;24.70;99.90
19928;DHT22;10126;50.876;4.470;2022-09-11T15:10:20;24.80;99.90
19928;DHT22;10126;50.876;4.470;2022-09-11T15:12:21;25.00;99.90